Welcome to the updated website with new and more accurate equipment. Established 2007


Active alerts

Marquette
  Details for Marquette Winter Weather Advisory  +1 additional alert

Mount Mesnard more information Mount Mesnard


Lower Harbor more information Lower Harbor


Visit our other weather sites:

Template documentation
and downloads

And another site


CBI


Nearby METAR Reports

   
KSAW - Sawyer, Michigan
Updated: 16-01-2018 14:47
Light Snow, Overcast  
Light Snow, Overcast  
   Wind: North 9.2 mph
Wind: North 9.2 mph
Temperature: 19.4°F
Wind Chill: 8.6°F
Dew Point: 14°F
Humidity: 79%
Barometer: 30.4 inHg
Clouds: Overcast
Visibility: 10 mi
Cloud details: Mostly Cloudy 427 m,
Mostly Cloudy 884 m,
Overcast 1676 m
KSAW 161947Z 35008KT 10SM -SN BKN014 BKN029 OVC055 M07/M10 A3040
KESC - Escanaba, Michigan
Updated: 16-01-2018 14:56
Overcast  
Overcast  
   Wind: SE 6.9 mph
Wind: SE 6.9 mph
Temperature: 21.2°F
Wind Chill: 12.2°F
Dew Point: 12.2°F
Humidity: 68%
Barometer: 30.45 inHg
Clouds: Overcast
Visibility: 10 mi
Cloud details: Overcast 610 m
KESC 161956Z AUTO 13006KT 10SM OVC020 M06/M11 A3045 RMK AO2 SNE45 SLP338 P0000 T10561111 FZRANO
KIMT - Iron Mountain, MI
Updated: 16-01-2018 14:54
Overcast  
Overcast  
   Wind: NW 12.7 mph
Wind: NW 12.7 mph
Temperature: 19.4°F
Wind Chill: 6.8°F
Dew Point: 10.4°F
Humidity: 68%
Barometer: 30.4 inHg
Clouds: Overcast
Visibility: 10 mi
Cloud details: Overcast 762 m
KIMT 161954Z AUTO 31011KT 10SM OVC025 M07/M12 A3040 RMK AO2 SNE41 SLP324 P0000 T10721117
KGRB - Green Bay, WI
Updated: 16-01-2018 14:53
Few Clouds  
Few Clouds  
   Wind: NW 6.9 mph
Wind: NW 6.9 mph
Temperature: 21.2°F
Wind Chill: 12.2°F
Dew Point: 10.4°F
Humidity: 63%
Barometer: 30.46 inHg
Clouds: Few Clouds
Visibility: 10 mi
Cloud details: Few Clouds 640 m,
Few Clouds 1311 m
KGRB 161953Z 32006KT 10SM FEW021 FEW043 M06/M12 A3046 RMK AO2 SLP330 T10561117
KDET - Detroit, MI
Updated: 16-01-2018 14:53
Haze, Overcast  
Haze, Overcast  
   Wind: WSW 10.4 mph
Wind: WSW 10.4 mph
Temperature: 15.8°F
Wind Chill: 3.2°F
Dew Point: 8.6°F
Humidity: 73%
Barometer: 30.37 inHg
Clouds: Overcast
Visibility: 5 mi
Cloud details: Overcast 1524 m
KDET 161953Z 24009KT 5SM HZ OVC050 M09/M13 A3037 RMK AO2 SNE38 SLP297 P0000 T10941128
 

Script developed by  Saratoga-weather.org Adapted for the template by  Weerstation Leuven

You find our weather info also at:

Weather Underground

Midwestern Weather Network

WeatherlinkIP

Citizen Weather Observer Program (CWOP)

Equipment we use:

Weather-station
Davis VP2

Weather-program
Davis Weatherlink.Com

Davis VP2

Davis Weatherlink.Com